Time;durP1;ratioP1;P1;durP2;ratioP2;P2;SDS_P1;SDS_P2;PMS_P1;PMS_P2;Temp;Humidity;BMP_temperature;BMP_pressure;BME280_temperature;BME280_humidity;BME280_pressure;Samples;Min_cycle;Max_cycle;Signal;HPM_P1;HPM_P2
2023/05/13 00:00:16;;;;;;;11.15;6.40;;;;;;;12.17;71.11;100151.12;7710206;32;37746;-86
2023/05/13 00:04:33;;;;;;;8.23;5.62;;;;;;;12.45;70.29;100146.97;7728158;32;40102;-86
2023/05/13 00:08:49;;;;;;;11.00;5.90;;;;;;;12.86;69.03;100151.56;7737764;32;40824;-86
2023/05/13 00:13:07;;;;;;;9.25;6.03;;;;;;;12.63;69.18;100151.06;7730107;32;37918;-86
2023/05/13 00:17:23;;;;;;;10.15;5.78;;;;;;;12.44;70.60;100152.75;7711058;32;37431;-85
2023/05/13 00:21:40;;;;;;;9.98;5.93;;;;;;;12.82;69.38;100150.50;7711166;32;39759;-85
2023/05/13 00:25:56;;;;;;;10.85;6.53;;;;;;;12.54;70.07;100144.53;7961166;26;40137;-85
2023/05/13 00:30:12;;;;;;;8.95;6.12;;;;;;;12.37;70.43;100145.63;7666422;32;38522;-86
2023/05/13 00:34:29;;;;;;;8.95;5.53;;;;;;;12.76;69.21;100146.94;7683324;32;37791;-85
2023/05/13 00:38:45;;;;;;;11.50;6.22;;;;;;;12.82;68.90;100147.75;7670893;32;39335;-85
2023/05/13 00:43:01;;;;;;;10.90;5.93;;;;;;;12.85;68.71;100144.44;7675268;32;40007;-86
2023/05/13 00:47:17;;;;;;;8.45;5.65;;;;;;;12.92;68.60;100150.47;7684015;32;38129;-86
2023/05/13 00:51:35;;;;;;;9.52;5.57;;;;;;;12.90;68.36;100153.47;7674981;32;37034;-86
2023/05/13 00:55:51;;;;;;;12.37;5.82;;;;;;;12.63;69.21;100142.06;7644206;32;40171;-87
2023/05/13 01:00:09;;;;;;;10.07;5.95;;;;;;;12.86;68.80;100149.63;7657513;32;39874;-84
2023/05/13 01:04:56;;;;;;;9.60;5.80;;;;;;;12.61;69.60;100147.81;7657379;32;38756;-87
2023/05/13 01:09:33;;;;;;;9.60;5.65;;;;;;;13.04;68.41;100152.84;7657014;32;37156;-87
2023/05/13 01:13:56;;;;;;;7.43;5.18;;;;;;;12.91;68.46;100159.75;7679689;32;39462;-86
2023/05/13 01:18:23;;;;;;;11.23;5.00;;;;;;;12.88;68.34;100154.84;7670679;32;39881;-86
2023/05/13 01:22:39;;;;;;;8.65;5.35;;;;;;;13.21;67.10;100156.09;7668617;32;38788;-85
2023/05/13 01:26:56;;;;;;;9.05;5.37;;;;;;;13.00;67.95;100162.75;7656701;32;37042;-86
2023/05/13 01:31:13;;;;;;;8.02;5.43;;;;;;;13.03;67.75;100163.00;7662705;32;39308;-87
2023/05/13 01:35:30;;;;;;;7.90;5.40;;;;;;;13.04;67.26;100161.91;7683071;32;40080;-87
2023/05/13 01:39:47;;;;;;;9.45;5.32;;;;;;;12.85;68.40;100160.84;7675265;32;38650;-86
2023/05/13 01:44:03;;;;;;;8.13;5.57;;;;;;;12.82;67.90;100158.69;7656555;32;37363;-87
2023/05/13 01:48:20;;;;;;;12.63;5.90;;;;;;;12.85;67.77;100161.69;7656392;32;39329;-86
2023/05/13 01:52:36;;;;;;;10.60;5.43;;;;;;;12.93;67.49;100168.50;7680820;32;39962;-86
2023/05/13 01:56:52;;;;;;;8.13;5.20;;;;;;;13.02;67.43;100166.00;7682616;32;38512;-85
2023/05/13 02:01:08;;;;;;;18.73;5.28;;;;;;;12.95;67.56;100166.28;7672352;32;37570;-86
2023/05/13 02:05:25;;;;;;;8.07;5.35;;;;;;;12.98;67.61;100165.75;7682175;32;40055;-86
2023/05/13 02:09:41;;;;;;;8.45;5.25;;;;;;;13.13;66.97;100162.16;7676092;32;40770;-85
2023/05/13 02:13:57;;;;;;;8.63;5.00;;;;;;;12.86;67.68;100173.44;7655824;32;38018;-87
2023/05/13 02:18:14;;;;;;;7.60;4.93;;;;;;;12.83;67.74;100165.78;7662584;32;37042;-86
2023/05/13 02:22:30;;;;;;;10.07;5.45;;;;;;;12.84;67.75;100164.69;7683038;32;40066;-87
2023/05/13 02:26:46;;;;;;;8.07;4.82;;;;;;;12.87;67.69;100164.97;7685629;32;39903;-85
2023/05/13 02:31:02;;;;;;;7.80;5.20;;;;;;;12.54;68.44;100175.44;7661094;32;37850;-85
2023/05/13 02:35:19;;;;;;;9.82;4.90;;;;;;;12.63;68.19;100170.22;7664387;32;37848;-87
2023/05/13 02:39:35;;;;;;;9.55;5.35;;;;;;;12.91;67.03;100176.19;7659420;32;40181;-87
2023/05/13 02:43:51;;;;;;;8.02;4.75;;;;;;;12.75;67.30;100173.47;7659327;32;40113;-86
2023/05/13 02:48:09;;;;;;;9.73;5.65;;;;;;;12.92;66.94;100172.34;7681788;32;37938;-86
2023/05/13 02:52:26;;;;;;;7.62;4.70;;;;;;;12.55;68.09;100163.38;7685591;32;37869;-86
2023/05/13 02:56:42;;;;;;;7.80;5.47;;;;;;;12.53;68.58;100164.75;7671858;32;39261;-86
2023/05/13 03:00:58;;;;;;;9.27;5.35;;;;;;;12.78;67.71;100167.44;7659221;32;39769;-86
2023/05/13 03:05:15;;;;;;;7.82;5.45;;;;;;;12.40;68.78;100166.97;7663006;32;38755;-86
2023/05/13 03:09:33;;;;;;;8.65;5.10;;;;;;;12.29;68.79;100173.53;7685340;32;37541;-86
2023/05/13 03:13:50;;;;;;;9.90;5.60;;;;;;;12.59;67.51;100164.47;7685514;32;38250;-87
2023/05/13 03:18:06;;;;;;;7.93;5.15;;;;;;;12.44;68.54;100169.97;7663051;32;39797;-86
2023/05/13 03:22:22;;;;;;;10.52;5.40;;;;;;;12.56;68.19;100173.22;7658833;32;37862;-85
2023/05/13 03:26:39;;;;;;;8.68;4.78;;;;;;;12.46;68.64;100165.03;7659296;32;37153;-86
2023/05/13 03:30:55;;;;;;;9.73;5.20;;;;;;;12.21;68.03;100179.53;7658755;32;39408;-87
2023/05/13 03:35:11;;;;;;;7.50;4.90;;;;;;;12.58;67.46;100175.69;7683491;32;40502;-87
2023/05/13 03:39:28;;;;;;;7.90;5.20;;;;;;;12.90;66.38;100172.63;7684090;32;38648;-87
2023/05/13 03:43:45;;;;;;;8.93;4.97;;;;;;;12.28;68.12;100184.72;7682895;32;37145;-86
2023/05/13 03:48:01;;;;;;;8.48;5.18;;;;;;;12.43;67.67;100186.66;7658404;32;39414;-86
2023/05/13 03:52:17;;;;;;;10.70;5.18;;;;;;;12.40;67.61;100199.78;7676330;32;39990;-87
2023/05/13 03:56:33;;;;;;;9.15;5.53;;;;;;;12.44;67.32;100199.22;7684884;32;38048;-86
2023/05/13 04:00:50;;;;;;;9.27;5.60;;;;;;;12.24;68.35;100200.03;7675536;32;37797;-86
2023/05/13 04:05:08;;;;;;;9.85;5.82;;;;;;;12.40;67.57;100202.50;7658384;32;39482;-86
2023/05/13 04:09:24;;;;;;;7.65;5.18;;;;;;;12.19;68.30;100217.25;7658226;32;38885;-87
2023/05/13 04:13:42;;;;;;;10.43;5.32;;;;;;;12.39;67.98;100217.25;7675977;32;37999;-87
2023/05/13 04:17:59;;;;;;;9.43;5.15;;;;;;;12.43;67.71;100225.75;7684629;32;36859;-85
2023/05/13 04:22:15;;;;;;;9.02;5.22;;;;;;;12.23;68.58;100237.50;7666705;32;40179;-86
2023/05/13 04:26:31;;;;;;;8.68;4.95;;;;;;;12.60;66.80;100230.94;7657905;32;39972;-86
2023/05/13 04:30:47;;;;;;;10.57;5.20;;;;;;;12.40;67.72;100231.78;7666073;32;37938;-87
2023/05/13 04:35:05;;;;;;;9.35;4.85;;;;;;;12.34;67.33;100232.84;7684338;32;37339;-87
2023/05/13 04:39:22;;;;;;;7.85;4.80;;;;;;;12.53;66.87;100235.88;7684246;32;39316;-86
2023/05/13 04:43:38;;;;;;;6.35;4.45;;;;;;;12.58;66.65;100244.06;7657474;32;39969;-86
2023/05/13 04:47:54;;;;;;;7.90;4.43;;;;;;;12.50;67.28;100242.69;7657821;32;37749;-85
2023/05/13 04:52:13;;;;;;;7.53;4.75;;;;;;;12.70;66.78;100246.53;7671016;32;37226;-87
2023/05/13 04:56:29;;;;;;;8.32;5.03;;;;;;;12.55;67.02;100250.09;7683736;32;39436;-87
2023/05/13 05:00:45;;;;;;;7.25;4.40;;;;;;;12.50;67.59;100241.88;7665885;32;39658;-87
2023/05/13 05:05:02;;;;;;;10.05;5.00;;;;;;;12.50;67.60;100259.09;7665887;32;38766;-84
2023/05/13 05:09:18;;;;;;;8.32;4.80;;;;;;;12.45;67.73;100266.47;7673822;32;37746;-85
2023/05/13 05:13:35;;;;;;;9.15;5.28;;;;;;;12.53;66.95;100260.47;7679991;32;39349;-85
2023/05/13 05:17:51;;;;;;;12.77;6.55;;;;;;;12.37;68.07;100260.47;7658082;32;39934;-85
2023/05/13 05:22:07;;;;;;;12.30;7.05;;;;;;;12.49;67.56;100257.47;7655635;32;38265;-86
2023/05/13 05:26:24;;;;;;;13.80;8.20;;;;;;;12.53;67.75;100263.22;7654850;32;37138;-85
2023/05/13 05:30:40;;;;;;;13.62;8.10;;;;;;;12.44;68.27;100264.84;7653704;32;39015;-85
2023/05/13 05:34:56;;;;;;;12.98;7.82;;;;;;;12.46;67.72;100273.59;7653598;32;41042;-85
2023/05/13 05:39:12;;;;;;;12.57;7.35;;;;;;;12.12;68.21;100276.81;7653256;32;38462;-85
2023/05/13 05:43:29;;;;;;;14.25;7.80;;;;;;;12.61;66.87;100270.87;7657177;32;37119;-85
2023/05/13 05:47:45;;;;;;;10.45;7.22;;;;;;;12.37;67.33;100278.78;7664984;32;39352;-85
2023/05/13 05:52:02;;;;;;;12.32;7.28;;;;;;;12.33;67.30;100274.94;7667442;32;39923;-81
2023/05/13 05:56:18;;;;;;;12.88;8.18;;;;;;;12.00;68.36;100282.53;7678529;32;37909;-81
2023/05/13 06:00:34;;;;;;;16.10;8.82;;;;;;;12.05;67.26;100279.00;7673744;32;37985;-86
2023/05/13 06:04:51;;;;;;;18.52;8.98;;;;;;;12.28;66.72;100277.66;7675862;32;39371;-83
2023/05/13 06:09:07;;;;;;;13.20;9.32;;;;;;;12.56;66.18;100274.41;7663486;32;40019;-83
2023/05/13 06:13:24;;;;;;;16.25;9.63;;;;;;;12.15;67.57;100279.03;7659780;32;38159;-82
2023/05/13 06:17:40;;;;;;;17.17;8.70;;;;;;;12.50;66.60;100282.91;7659831;32;37102;-77
2023/05/13 06:21:56;;;;;;;14.07;8.80;;;;;;;12.57;66.01;100287.00;7662419;32;40339;-77
2023/05/13 06:26:12;;;;;;;12.60;7.90;;;;;;;12.54;67.35;100281.28;7673713;32;39860;-71
2023/05/13 06:30:28;;;;;;;13.90;8.05;;;;;;;12.92;67.23;100284.53;7685755;32;38021;-71
2023/05/13 06:34:45;;;;;;;15.82;9.93;;;;;;;13.05;65.79;100296.84;7685964;32;37077;-85
2023/05/13 06:39:02;;;;;;;15.88;9.77;;;;;;;13.00;64.54;100300.38;7685804;32;39528;-85
2023/05/13 06:43:18;;;;;;;14.68;8.70;;;;;;;12.52;65.28;100294.37;7685695;32;40009;-84
2023/05/13 06:47:34;;;;;;;11.98;7.90;;;;;;;12.89;63.99;100299.59;7685611;32;38044;-85
2023/05/13 06:51:51;;;;;;;13.23;7.87;;;;;;;12.67;64.73;100301.78;7685731;32;37024;-85
2023/05/13 06:56:07;;;;;;;10.40;7.72;;;;;;;12.59;65.55;100305.91;7685619;32;39472;-85
2023/05/13 07:00:24;;;;;;;12.00;7.20;;;;;;;12.30;65.98;100311.06;7685619;32;40717;-85
2023/05/13 07:04:40;;;;;;;12.00;8.80;;;;;;;12.55;64.90;100313.78;7685470;32;38025;-85
2023/05/13 07:08:56;;;;;;;11.68;7.87;;;;;;;12.66;65.42;100311.91;7678056;32;36911;-85
2023/05/13 07:13:13;;;;;;;10.80;7.12;;;;;;;12.66;65.94;100306.44;7659027;32;39295;-84
2023/05/13 07:17:30;;;;;;;13.73;9.25;;;;;;;12.67;64.24;100308.06;7658980;32;39975;-88
2023/05/13 07:21:46;;;;;;;11.50;7.20;;;;;;;12.70;65.26;100313.00;7667051;32;37975;-87
2023/05/13 07:26:02;;;;;;;13.27;7.37;;;;;;;12.76;65.19;100316.53;7678513;32;37970;-85
2023/05/13 07:30:19;;;;;;;11.05;7.25;;;;;;;12.33;66.36;100313.22;7685119;32;40039;-86
2023/05/13 07:34:36;;;;;;;12.30;6.57;;;;;;;12.71;65.20;100313.81;7679218;32;40920;-87
2023/05/13 07:38:52;;;;;;;8.75;6.05;;;;;;;12.53;64.50;100318.72;7685443;32;38530;-86
2023/05/13 07:43:09;;;;;;;11.07;6.97;;;;;;;12.69;63.33;100318.72;7674527;32;36953;-86
2023/05/13 07:47:27;;;;;;;15.90;9.15;;;;;;;12.87;63.02;100322.84;7669666;32;39396;-86
2023/05/13 07:51:44;;;;;;;15.15;7.62;;;;;;;12.48;65.02;100321.44;7668216;32;39871;-86
2023/05/13 07:56:00;;;;;;;9.55;5.18;;;;;;;12.76;63.56;100322.84;7679401;32;38785;-86
2023/05/13 08:00:17;;;;;;;6.82;4.97;;;;;;;12.97;61.96;100325.59;7685112;32;36486;-86
2023/05/13 08:04:33;;;;;;;7.37;4.85;;;;;;;13.19;61.11;100321.72;7684860;32;39341;-85
2023/05/13 08:08:49;;;;;;;15.00;7.60;;;;;;;13.20;59.97;100332.41;7679553;32;170053;-86
2023/05/13 08:13:06;;;;;;;11.63;5.68;;;;;;;13.34;60.77;100332.69;7685038;32;37733;-86
2023/05/13 08:17:22;;;;;;;8.68;4.87;;;;;;;13.02;61.31;100336.53;7684984;32;37150;-85
2023/05/13 08:21:38;;;;;;;9.23;5.20;;;;;;;13.18;59.16;100340.06;7663527;32;38608;-84
2023/05/13 08:25:55;;;;;;;10.40;4.93;;;;;;;13.27;59.54;100335.66;7658278;32;39868;-85
2023/05/13 08:30:11;;;;;;;9.70;5.12;;;;;;;13.27;60.15;100338.41;7657926;32;38731;-86
2023/05/13 08:34:28;;;;;;;8.63;4.95;;;;;;;13.49;58.68;100349.06;7658856;32;35380;-85
2023/05/13 08:38:44;;;;;;;8.57;4.85;;;;;;;13.74;59.15;100347.34;7658024;32;40079;-85
2023/05/13 08:43:02;;;;;;;9.80;4.93;;;;;;;13.60;58.22;100351.78;7679511;32;40657;-85
2023/05/13 08:47:37;;;;;;;11.12;5.25;;;;;;;13.79;57.09;100347.34;7684175;32;39020;-85
2023/05/13 08:51:53;;;;;;;7.87;4.78;;;;;;;13.66;58.25;100358.87;7684253;32;38066;-85
2023/05/13 08:56:10;;;;;;;10.60;5.97;;;;;;;13.59;59.25;100361.09;7651686;32;40200;-85
2023/05/13 09:00:27;;;;;;;9.32;5.40;;;;;;;13.49;58.48;100368.25;7657801;32;40557;-85
2023/05/13 09:04:44;;;;;;;8.52;5.00;;;;;;;13.26;58.81;100366.06;7657564;32;38032;-86
2023/05/13 09:09:02;;;;;;;7.90;4.90;;;;;;;13.51;59.23;100363.31;7659371;32;37042;-86
2023/05/13 09:13:18;;;;;;;7.97;4.90;;;;;;;13.55;57.85;100360.03;7683957;32;39392;-85
2023/05/13 09:17:38;;;;;;;7.10;4.65;;;;;;;13.83;57.92;100356.66;7669910;32;40602;-86
2023/05/13 09:21:55;;;;;;;8.95;5.12;;;;;;;13.89;57.89;100352.78;7683561;32;38298;-86
2023/05/13 09:26:29;;;;;;;8.32;4.60;;;;;;;13.57;57.31;100349.59;7680945;32;37090;-86
2023/05/13 09:30:53;;;;;;;8.15;4.45;;;;;;;13.52;59.51;100345.78;7683245;32;38263;-86
2023/05/13 09:35:15;;;;;;;8.07;3.90;;;;;;;14.25;56.46;100355.37;7674017;32;40976;-86
2023/05/13 09:39:36;;;;;;;8.40;4.28;;;;;;;14.27;56.70;100357.81;7686536;32;38061;-86
2023/05/13 09:43:53;;;;;;;6.60;3.90;;;;;;;14.82;56.59;100346.78;7686527;32;37808;-86
2023/05/13 09:48:10;;;;;;;7.18;4.45;;;;;;;14.70;54.91;100357.31;7673026;32;39391;-86
2023/05/13 09:52:28;;;;;;;7.00;4.30;;;;;;;14.54;55.47;100357.41;7686338;32;40845;-86
2023/05/13 09:56:44;;;;;;;13.45;4.47;;;;;;;14.76;55.09;100356.16;7673007;32;38713;-85
2023/05/13 10:01:01;;;;;;;9.20;4.72;;;;;;;14.43;56.47;100348.38;7686287;32;37736;-86
2023/05/13 10:05:18;;;;;;;7.70;4.68;;;;;;;14.64;54.63;100351.03;7672944;32;39300;-86
2023/05/13 10:09:36;;;;;;;8.68;4.97;;;;;;;15.26;54.70;100348.59;7686120;32;40831;-86
2023/05/13 10:13:58;;;;;;;7.05;4.80;;;;;;;15.16;55.12;100348.69;7664875;32;38433;-88
2023/05/13 10:18:15;;;;;;;8.80;5.55;;;;;;;15.13;53.62;100349.28;7670896;32;37736;-87
2023/05/13 10:22:33;;;;;;;7.82;4.78;;;;;;;15.27;53.84;100357.69;7668527;32;39263;-88
2023/05/13 10:26:51;;;;;;;13.93;7.45;;;;;;;15.43;54.83;100347.34;7667763;32;41572;-87
2023/05/13 10:31:07;;;;;;;7.97;5.30;;;;;;;15.00;55.42;100357.09;7655134;32;38206;-87
2023/05/13 10:35:27;;;;;;;9.50;5.25;;;;;;;14.57;55.44;100354.09;7667050;32;37763;-86
2023/05/13 10:40:14;;;;;;;9.93;5.07;;;;;;;15.44;53.04;100343.50;7655428;32;39352;-87
2023/05/13 10:44:32;;;;;;;7.28;4.78;;;;;;;15.17;54.79;100342.91;7666124;32;39269;-87
2023/05/13 10:48:53;;;;;;;8.68;4.80;;;;;;;15.21;52.96;100345.91;7667012;32;37776;-86
2023/05/13 10:53:18;;;;;;;9.48;4.75;;;;;;;15.82;53.53;100336.22;7655572;32;37108;-87
2023/05/13 10:57:37;;;;;;;9.60;4.70;;;;;;;15.49;52.74;100340.69;7644148;32;40532;-87
2023/05/13 11:01:53;;;;;;;18.87;8.30;;;;;;;15.52;52.62;100343.69;7657808;32;39929;-86
2023/05/13 11:06:18;;;;;;;10.48;6.05;;;;;;;15.81;52.99;100347.50;7659006;32;38785;-87
2023/05/13 11:10:35;;;;;;;9.60;4.50;;;;;;;15.72;53.44;100353.59;7648713;32;37777;-86
2023/05/13 11:14:55;;;;;;;8.27;4.80;;;;;;;15.88;52.96;100342.47;7685442;32;39383;-86
2023/05/13 11:19:22;;;;;;;6.25;4.43;;;;;;;16.42;53.29;100327.44;7685557;32;40253;-86
2023/05/13 11:24:00;;;;;;;8.82;4.87;;;;;;;16.05;52.31;100345.53;7671668;32;37671;-87
2023/05/13 11:28:37;;;;;;;6.15;4.35;;;;;;;16.05;51.85;100342.78;7671858;32;37137;-87
2023/05/13 11:32:55;;;;;;;7.78;4.62;;;;;;;15.69;52.32;100334.94;7667084;32;40019;-87
2023/05/13 11:37:12;;;;;;;9.70;5.60;;;;;;;15.78;53.11;100343.44;7675201;32;39734;-86
2023/05/13 11:41:33;;;;;;;11.93;5.70;;;;;;;15.35;52.90;100348.78;7685007;32;38015;-86
2023/05/13 11:45:50;;;;;;;12.07;5.25;;;;;;;15.59;52.62;100351.56;7671417;32;38073;-85
2023/05/13 11:50:21;;;;;;;6.47;4.85;;;;;;;15.64;53.09;100347.94;7684948;32;39894;-86
2023/05/13 11:54:52;;;;;;;13.43;6.28;;;;;;;16.11;52.51;100347.12;7679170;32;39886;-86
2023/05/13 11:59:15;;;;;;;8.40;6.00;;;;;;;15.99;52.31;100344.00;7665033;32;37236;-86
2023/05/13 12:03:31;;;;;;;9.90;5.60;;;;;;;15.76;53.77;100345.63;7663589;32;37086;-85
2023/05/13 12:07:47;;;;;;;9.25;5.70;;;;;;;16.28;51.86;100343.03;7669240;32;38857;-85
2023/05/13 12:12:04;;;;;;;9.35;6.10;;;;;;;16.31;52.50;100350.69;7661161;32;40037;-87
2023/05/13 12:16:21;;;;;;;8.43;5.60;;;;;;;16.29;53.08;100341.94;7666498;32;38470;-88
2023/05/13 12:20:37;;;;;;;10.35;5.00;;;;;;;16.72;51.95;100336.34;7656349;32;37126;-87
2023/05/13 12:24:54;;;;;;;10.23;5.05;;;;;;;16.50;53.07;100335.00;7657886;32;40206;-86
2023/05/13 12:29:10;;;;;;;7.80;5.22;;;;;;;16.71;53.27;100331.94;7671902;32;39594;-85
2023/05/13 12:33:28;;;;;;;7.18;4.55;;;;;;;16.51;51.67;100333.09;7675110;32;37106;-85
2023/05/13 12:37:57;;;;;;;10.77;4.87;;;;;;;16.84;52.94;100344.97;7644511;32;37017;-86
2023/05/13 12:42:14;;;;;;;8.18;4.65;;;;;;;15.96;52.32;100352.81;7675557;32;40187;-86
2023/05/13 12:46:31;;;;;;;7.97;5.12;;;;;;;16.15;52.49;100347.34;7669594;32;40755;-86
2023/05/13 12:50:47;;;;;;;9.68;5.05;;;;;;;16.63;51.53;100343.66;7666244;32;38130;-86
2023/05/13 12:55:04;;;;;;;8.63;5.05;;;;;;;16.50;52.45;100348.75;7660722;32;37771;-85
2023/05/13 12:59:20;;;;;;;8.65;4.47;;;;;;;16.27;52.77;100344.97;7655788;32;39165;-86
2023/05/13 13:03:36;;;;;;;6.72;4.28;;;;;;;16.58;52.47;100347.28;7659911;32;39647;-86
2023/05/13 13:07:53;;;;;;;7.78;4.53;;;;;;;16.60;52.34;100345.03;7656544;32;38055;-84
2023/05/13 13:12:09;;;;;;;9.63;4.45;;;;;;;16.63;53.37;100341.72;7659746;32;37353;-83
2023/05/13 13:16:26;;;;;;;6.43;3.47;;;;;;;16.63;52.60;100346.41;7649037;32;39316;-82
2023/05/13 13:20:42;;;;;;;10.43;5.05;;;;;;;16.55;51.95;100344.31;7631828;32;39762;-84
2023/05/13 13:24:58;;;;;;;11.43;4.40;;;;;;;16.45;52.55;100340.62;7661901;32;38465;-85
2023/05/13 13:29:15;;;;;;;7.53;4.10;;;;;;;16.55;53.23;100336.88;7674864;32;37838;-84
2023/05/13 13:33:31;;;;;;;8.48;4.40;;;;;;;17.05;52.19;100337.19;7656255;32;39361;-84
2023/05/13 13:37:47;;;;;;;10.00;4.37;;;;;;;17.05;50.03;100344.63;7656928;32;40033;-85
2023/05/13 13:42:03;;;;;;;9.00;4.07;;;;;;;16.98;50.38;100325.75;7656091;32;38175;-84
2023/05/13 13:46:20;;;;;;;7.95;3.87;;;;;;;16.81;51.09;100329.03;7643374;32;37749;-83
2023/05/13 13:50:37;;;;;;;9.68;3.62;;;;;;;17.08;49.52;100333.84;7656513;32;39508;-80
2023/05/13 13:54:54;;;;;;;6.80;4.05;;;;;;;17.34;50.61;100324.31;7656540;32;40770;-81
2023/05/13 13:59:10;;;;;;;6.68;3.33;;;;;;;17.50;49.69;100327.56;7656366;32;38714;-80
2023/05/13 14:03:27;;;;;;;7.00;3.87;;;;;;;17.06;50.72;100321.50;7657828;32;36771;-82
2023/05/13 14:07:43;;;;;;;7.10;3.62;;;;;;;17.18;50.66;100324.56;7663539;32;39467;-82
2023/05/13 14:12:00;;;;;;;6.82;3.70;;;;;;;17.10;49.03;100330.78;7676277;32;40800;-82
2023/05/13 14:16:16;;;;;;;7.45;3.95;;;;;;;16.96;50.43;100329.94;7682383;32;37913;-82
2023/05/13 14:20:34;;;;;;;10.48;3.95;;;;;;;17.07;49.71;100328.63;7663204;32;36957;-82
2023/05/13 14:24:53;;;;;;;7.65;4.20;;;;;;;17.01;49.83;100324.34;7659854;32;38976;-83
2023/05/13 14:29:09;;;;;;;6.72;3.72;;;;;;;16.33;50.79;100323.69;7675780;32;40866;-82
2023/05/13 14:33:25;;;;;;;7.60;3.87;;;;;;;16.79;49.47;100316.69;7685880;32;37935;-82
2023/05/13 14:37:42;;;;;;;5.43;3.30;;;;;;;16.57;50.53;100298.03;7685835;32;37269;-82
2023/05/13 14:41:59;;;;;;;5.15;3.40;;;;;;;17.08;49.95;100302.72;7685895;32;40076;-82
2023/05/13 14:46:15;;;;;;;11.43;3.85;;;;;;;17.27;49.08;100303.47;7685742;32;38273;-82
2023/05/13 14:50:32;;;;;;;5.72;3.30;;;;;;;17.21;49.63;100304.69;7685614;32;37982;-86
2023/05/13 14:54:48;;;;;;;11.23;3.65;;;;;;;17.79;49.06;100299.69;7670824;32;36856;-87
2023/05/13 14:59:05;;;;;;;7.22;3.67;;;;;;;18.72;48.34;100285.44;7672065;32;39213;-87
2023/05/13 15:03:21;;;;;;;7.20;3.70;;;;;;;18.81;45.13;100290.22;7664838;32;40818;-87
2023/05/13 15:07:37;;;;;;;8.50;3.67;;;;;;;19.81;44.74;100278.69;7645523;32;38069;-87
2023/05/13 15:11:53;;;;;;;10.25;3.45;;;;;;;19.89;44.07;100268.78;7645801;32;37826;-88
2023/05/13 15:16:10;;;;;;;5.62;3.30;;;;;;;20.26;41.31;100267.37;7645733;32;39166;-88
2023/05/13 15:20:27;;;;;;;5.43;3.33;;;;;;;19.74;42.81;100278.34;7658969;32;39641;-89
2023/05/13 15:24:43;;;;;;;7.10;3.65;;;;;;;19.27;45.39;100294.59;7674275;32;38082;-88
2023/05/13 15:29:00;;;;;;;8.18;3.58;;;;;;;19.16;43.88;100290.44;7684849;32;37722;-89
2023/05/13 15:33:16;;;;;;;10.20;3.53;;;;;;;18.86;43.08;100292.88;7685140;32;39914;-89
2023/05/13 15:37:32;;;;;;;12.50;3.30;;;;;;;18.57;43.86;100286.66;7685113;32;39255;-89
2023/05/13 15:41:49;;;;;;;6.20;3.47;;;;;;;18.14;45.24;100295.41;7685022;32;38242;-89
2023/05/13 15:46:05;;;;;;;5.72;3.70;;;;;;;17.88;45.23;100286.84;7660193;32;37187;-89
2023/05/13 15:50:21;;;;;;;6.20;3.55;;;;;;;17.79;46.61;100295.00;7645128;32;39466;-89
2023/05/13 15:54:38;;;;;;;6.45;3.95;;;;;;;17.56;47.35;100290.53;7658597;32;39702;-80
2023/05/13 15:58:54;;;;;;;7.10;3.60;;;;;;;17.42;47.72;100296.03;7658488;32;38512;-74
2023/05/13 16:03:11;;;;;;;9.07;4.20;;;;;;;17.85;48.09;100287.44;7664478;32;37291;-74
2023/05/13 16:07:27;;;;;;;8.80;3.58;;;;;;;17.65;47.10;100292.25;7658500;32;39629;-86
2023/05/13 16:11:43;;;;;;;4.90;3.17;;;;;;;17.51;48.17;100298.91;7658455;32;39892;-84
2023/05/13 16:16:00;;;;;;;6.40;3.17;;;;;;;17.37;48.59;100293.38;7679565;32;38122;-87
2023/05/13 16:20:16;;;;;;;5.53;3.20;;;;;;;17.04;49.16;100297.00;7659619;32;37008;-74
2023/05/13 16:24:32;;;;;;;7.37;3.15;;;;;;;16.94;49.05;100291.69;7668088;32;39126;-74
2023/05/13 16:28:49;;;;;;;7.15;3.50;;;;;;;17.40;49.08;100292.75;7658105;32;40464;-89
2023/05/13 16:33:06;;;;;;;4.95;3.05;;;;;;;17.31;48.69;100294.59;7658180;32;38818;-89
2023/05/13 16:37:23;;;;;;;6.07;3.70;;;;;;;17.58;47.58;100294.59;7660248;32;37033;-89
2023/05/13 16:41:39;;;;;;;5.30;3.70;;;;;;;17.48;48.56;100294.81;7663442;32;39655;-87
2023/05/13 16:45:55;;;;;;;6.55;3.75;;;;;;;17.30;48.21;100298.47;7667888;32;40153;-87
2023/05/13 16:50:11;;;;;;;6.12;3.47;;;;;;;17.14;48.90;100282.22;7668283;32;38717;-88
2023/05/13 16:54:28;;;;;;;5.55;3.58;;;;;;;17.11;49.22;100282.84;7657839;32;37804;-90
2023/05/13 16:58:44;;;;;;;6.50;3.15;;;;;;;17.25;48.80;100269.09;7644359;32;39201;-90
2023/05/13 17:03:01;;;;;;;8.30;2.97;;;;;;;17.20;48.57;100272.75;7631746;32;40379;-89
2023/05/13 17:07:17;;;;;;;6.80;3.40;;;;;;;16.94;50.42;100274.34;7657502;32;38833;-90
2023/05/13 17:11:35;;;;;;;8.98;3.53;;;;;;;17.02;49.82;100276.38;7665667;32;37111;-89
2023/05/13 17:15:52;;;;;;;4.85;3.33;;;;;;;16.69;50.64;100284.63;7670298;32;40099;-89
2023/05/13 17:20:09;;;;;;;6.75;3.33;;;;;;;17.15;49.67;100281.09;7683631;32;40161;-89
2023/05/13 17:24:28;;;;;;;9.25;3.78;;;;;;;16.80;51.04;100291.59;7676004;32;38759;-85
2023/05/13 17:28:48;;;;;;;6.60;4.12;;;;;;;16.86;50.59;100289.59;7671548;32;37693;-88
2023/05/13 17:33:04;;;;;;;7.22;4.18;;;;;;;16.82;50.91;100283.84;7658187;32;40102;-89
2023/05/13 17:37:21;;;;;;;7.03;3.83;;;;;;;16.86;51.11;100273.91;7657157;32;40160;-89
2023/05/13 17:41:37;;;;;;;6.82;3.80;;;;;;;16.43;52.16;100275.97;7658856;32;37999;-88
2023/05/13 17:45:53;;;;;;;7.82;3.72;;;;;;;16.41;51.16;100272.69;7683190;32;36994;-87
2023/05/13 17:50:10;;;;;;;5.93;3.90;;;;;;;16.27;49.95;100272.62;7683446;32;39396;-89
2023/05/13 17:54:26;;;;;;;8.70;4.85;;;;;;;15.55;52.12;100284.56;7660376;32;40695;-88
2023/05/13 17:58:42;;;;;;;6.22;4.35;;;;;;;16.11;50.56;100283.88;7659850;32;37915;-89
2023/05/13 18:02:58;;;;;;;6.10;3.83;;;;;;;16.17;50.88;100283.78;7663969;32;36777;-84
2023/05/13 18:07:15;;;;;;;6.97;4.37;;;;;;;16.19;50.89;100287.06;7661124;32;40177;-91
2023/05/13 18:11:31;;;;;;;11.38;4.28;;;;;;;16.08;51.38;100292.69;7664226;32;39950;-89
2023/05/13 18:15:47;;;;;;;8.10;4.05;;;;;;;15.94;52.09;100289.06;7681916;32;37930;-89
2023/05/13 18:20:04;;;;;;;7.05;4.25;;;;;;;15.81;52.46;100293.34;7646331;32;37257;-88
2023/05/13 18:24:21;;;;;;;14.93;4.72;;;;;;;15.75;52.49;100283.53;7661209;32;40105;-88
2023/05/13 18:28:38;;;;;;;6.28;4.30;;;;;;;15.50;53.25;100287.38;7667402;32;40169;-86
2023/05/13 18:32:54;;;;;;;6.37;4.10;;;;;;;15.40;53.87;100283.63;7683616;32;37635;-85
2023/05/13 18:37:11;;;;;;;10.27;4.03;;;;;;;15.17;54.06;100282.50;7683170;32;37046;-85
2023/05/13 18:41:27;;;;;;;6.22;3.83;;;;;;;15.28;53.49;100271.41;7666607;32;38903;-84
2023/05/13 18:45:43;;;;;;;9.50;4.50;;;;;;;15.13;53.70;100269.66;7668186;32;39605;-84
2023/05/13 18:49:59;;;;;;;7.47;4.22;;;;;;;14.91;54.29;100283.88;7659744;32;38669;-84
2023/05/13 18:54:16;;;;;;;7.12;4.37;;;;;;;14.86;54.02;100306.69;7665385;32;37337;-83
2023/05/13 18:58:32;;;;;;;8.57;5.37;;;;;;;14.91;53.69;100314.06;7671044;32;39404;-83
2023/05/13 19:02:49;;;;;;;8.95;5.43;;;;;;;14.97;53.95;100323.88;7661787;32;39974;-83
2023/05/13 19:07:05;;;;;;;8.27;4.78;;;;;;;14.92;54.12;100316.53;7659826;32;38706;-85
2023/05/13 19:11:22;;;;;;;11.57;4.82;;;;;;;15.03;54.28;100322.72;7675656;32;37025;-83
2023/05/13 19:15:39;;;;;;;7.97;3.97;;;;;;;14.81;55.06;100314.97;7685343;32;38824;-86
2023/05/13 19:19:56;;;;;;;9.32;4.55;;;;;;;14.88;54.73;100312.69;7658484;32;38444;-84
2023/05/13 19:24:12;;;;;;;10.32;4.22;;;;;;;14.56;55.41;100319.50;7668147;32;38909;-85
2023/05/13 19:28:28;;;;;;;8.20;4.62;;;;;;;14.58;55.35;100327.47;7670116;32;36841;-85
2023/05/13 19:32:45;;;;;;;10.05;5.12;;;;;;;14.49;55.63;100337.38;7665655;32;39295;-85
2023/05/13 19:37:01;;;;;;;7.68;4.68;;;;;;;14.37;55.69;100326.78;7666444;32;40030;-85
2023/05/13 19:41:19;;;;;;;11.32;6.53;;;;;;;14.35;55.68;100324.31;7673124;32;38218;-85
2023/05/13 19:45:36;;;;;;;7.62;4.45;;;;;;;14.32;55.76;100338.59;7662150;32;37043;-85
2023/05/13 19:49:54;;;;;;;7.30;4.10;;;;;;;14.19;56.30;100331.81;7651719;32;39430;-85